Time;durP1;ratioP1;P1;durP2;ratioP2;P2;SDS_P1;SDS_P2;PMS_P1;PMS_P2;Temp;Humidity;BMP_temperature;BMP_pressure;BME280_temperature;BME280_humidity;BME280_pressure;Samples;Min_cycle;Max_cycle;Signal;HPM_P1;HPM_P2
2021/08/17 00:01:10;;;;;;;0.55;0.32;;;;;;;13.79;100.00;100295.16;5012694;28;20061;-74
2021/08/17 00:04:13;;;;;;;2.72;0.85;;;;;;;13.78;100.00;100299.22;5012800;28;20056;-76
2021/08/17 00:07:17;;;;;;;1.13;0.75;;;;;;;13.91;100.00;100282.84;5012669;28;20057;-75
2021/08/17 00:10:20;;;;;;;2.53;0.40;;;;;;;13.85;100.00;100291.19;5012737;28;20108;-76
2021/08/17 00:13:23;;;;;;;1.08;0.50;;;;;;;13.83;100.00;100284.53;5014044;28;20052;-75
2021/08/17 00:16:26;;;;;;;1.08;0.55;;;;;;;13.87;100.00;100276.69;5013996;28;20135;-76
2021/08/17 00:19:29;;;;;;;2.58;0.40;;;;;;;13.82;100.00;100283.00;5013428;28;20044;-76
2021/08/17 00:22:35;;;;;;;4.95;1.25;;;;;;;13.96;100.00;100276.56;5010552;28;20056;-75
2021/08/17 00:25:42;;;;;;;3.67;0.45;;;;;;;13.96;100.00;100279.38;5010621;28;20088;-75
2021/08/17 00:28:45;;;;;;;3.08;1.02;;;;;;;13.97;100.00;100273.28;5003356;28;20064;-75
2021/08/17 00:31:48;;;;;;;4.93;1.05;;;;;;;13.95;100.00;100275.03;5004094;28;20061;-75
2021/08/17 00:34:52;;;;;;;1.23;0.55;;;;;;;13.93;100.00;100275.50;5010922;28;20141;-75
2021/08/17 00:37:55;;;;;;;0.25;0.10;;;;;;;13.89;100.00;100271.38;5005055;28;20057;-76
2021/08/17 00:40:58;;;;;;;1.60;1.05;;;;;;;13.87;100.00;100268.28;5005636;28;20057;-75
2021/08/17 00:44:03;;;;;;;3.30;0.70;;;;;;;13.86;100.00;100266.78;5010572;28;20424;-75
2021/08/17 00:47:06;;;;;;;2.75;0.75;;;;;;;13.78;100.00;100260.03;5011046;28;20534;-76
2021/08/17 00:50:09;;;;;;;0.65;0.38;;;;;;;13.74;100.00;100265.06;5011039;28;20057;-76
2021/08/17 00:53:13;;;;;;;2.88;0.98;;;;;;;13.74;100.00;100265.06;5012010;28;20065;-76
2021/08/17 00:56:15;;;;;;;0.30;0.30;;;;;;;13.67;100.00;100275.41;5011933;28;20137;-76
2021/08/17 00:59:18;;;;;;;4.47;0.77;;;;;;;13.64;100.00;100267.97;5011271;28;20149;-75
2021/08/17 01:02:21;;;;;;;0.68;0.57;;;;;;;13.57;100.00;100254.41;5011513;28;20065;-76
2021/08/17 01:05:29;;;;;;;3.25;0.95;;;;;;;13.59;100.00;100260.28;5011564;28;20137;-76
2021/08/17 01:08:33;;;;;;;2.17;0.63;;;;;;;13.69;100.00;100263.72;5011500;28;20057;-76
2021/08/17 01:11:42;;;;;;;1.20;0.80;;;;;;;13.58;100.00;100266.34;5011689;28;20120;-75
2021/08/17 01:14:44;;;;;;;1.55;0.75;;;;;;;13.56;100.00;100271.66;5002600;28;20515;-76
2021/08/17 01:17:48;;;;;;;0.47;0.30;;;;;;;13.56;100.00;100264.03;5004332;28;20061;-76
2021/08/17 01:20:54;;;;;;;3.58;0.80;;;;;;;13.49;100.00;100261.63;5004633;28;20065;-76
2021/08/17 01:23:57;;;;;;;2.45;1.00;;;;;;;13.45;100.00;100263.88;5005243;28;20116;-74
2021/08/17 01:27:00;;;;;;;0.57;0.38;;;;;;;13.34;100.00;100255.31;5005498;28;20057;-76
2021/08/17 01:30:04;;;;;;;1.02;0.40;;;;;;;13.34;100.00;100248.97;5011183;28;20444;-76
2021/08/17 01:33:07;;;;;;;1.05;0.20;;;;;;;13.29;100.00;100264.41;5011362;28;20155;-76
2021/08/17 01:36:10;;;;;;;2.17;0.47;;;;;;;13.26;100.00;100248.56;5011071;28;20052;-76
2021/08/17 01:39:13;;;;;;;2.67;0.82;;;;;;;13.26;100.00;100245.78;5007193;28;20119;-75
2021/08/17 01:42:18;;;;;;;3.67;0.95;;;;;;;13.22;100.00;100248.00;5011351;28;20065;-76
2021/08/17 01:45:22;;;;;;;4.50;0.77;;;;;;;13.26;100.00;100237.38;5010541;28;20183;-77
2021/08/17 01:48:31;;;;;;;3.00;1.10;;;;;;;13.30;100.00;100243.53;4994612;28;20619;-76
2021/08/17 01:51:34;;;;;;;3.92;0.55;;;;;;;13.29;100.00;100247.63;4991089;28;20077;-77
2021/08/17 01:54:37;;;;;;;1.45;0.73;;;;;;;13.47;100.00;100247.38;4990966;28;20145;-76
2021/08/17 01:57:41;;;;;;;2.95;0.43;;;;;;;13.56;100.00;100232.47;4991451;28;20065;-76
2021/08/17 02:00:45;;;;;;;2.50;0.95;;;;;;;13.50;100.00;100224.03;4991502;28;20566;-77
2021/08/17 02:03:48;;;;;;;1.75;0.57;;;;;;;13.60;100.00;100221.84;4992016;28;20157;-76
2021/08/17 02:06:52;;;;;;;0.45;0.40;;;;;;;13.64;100.00;100226.00;4991594;28;20428;-77
2021/08/17 02:09:55;;;;;;;1.58;0.65;;;;;;;13.62;100.00;100220.13;4992164;28;20077;-77
2021/08/17 02:12:58;;;;;;;1.33;0.35;;;;;;;13.69;100.00;100214.13;4994926;28;20058;-76
2021/08/17 02:16:01;;;;;;;1.02;0.52;;;;;;;13.66;100.00;100211.53;4994852;28;20066;-77
2021/08/17 02:19:05;;;;;;;0.70;0.30;;;;;;;13.59;100.00;100215.50;4995552;28;20141;-77
2021/08/17 02:22:08;;;;;;;0.77;0.25;;;;;;;13.40;100.00;100231.00;4990473;28;20529;-77
2021/08/17 02:25:12;;;;;;;0.75;0.20;;;;;;;13.51;100.00;100224.78;4994977;28;20138;-76
2021/08/17 02:28:15;;;;;;;0.68;0.40;;;;;;;13.50;100.00;100221.22;4991596;28;20476;-77
2021/08/17 02:31:18;;;;;;;6.43;0.88;;;;;;;13.42;100.00;100214.50;4991800;28;20459;-77
2021/08/17 02:34:21;;;;;;;1.90;0.68;;;;;;;13.45;100.00;100213.50;4994804;28;20058;-77
2021/08/17 02:37:24;;;;;;;1.55;0.50;;;;;;;13.46;100.00;100215.06;4994567;28;20060;-77
2021/08/17 02:40:27;;;;;;;2.63;0.77;;;;;;;13.42;100.00;100217.31;4993586;28;20113;-77
2021/08/17 02:43:30;;;;;;;4.38;0.63;;;;;;;13.33;100.00;100225.81;5014612;28;20574;-76
2021/08/17 02:46:33;;;;;;;0.80;0.75;;;;;;;13.36;100.00;100218.47;5014287;28;20538;-76
2021/08/17 02:49:37;;;;;;;1.35;0.30;;;;;;;13.31;100.00;100211.53;5014045;28;20120;-75
2021/08/17 02:52:39;;;;;;;0.40;0.40;;;;;;;13.27;100.00;100216.56;5014235;28;20080;-75
2021/08/17 02:55:43;;;;;;;6.22;0.80;;;;;;;13.23;100.00;100210.38;5012978;28;20071;-75
2021/08/17 02:58:46;;;;;;;1.85;0.55;;;;;;;13.17;100.00;100212.31;5012814;28;20420;-74
2021/08/17 03:01:49;;;;;;;1.08;0.57;;;;;;;13.17;100.00;100212.31;5015990;28;20065;-74
2021/08/17 03:04:52;;;;;;;1.92;0.63;;;;;;;13.16;100.00;100210.00;5015359;28;20529;-75
2021/08/17 03:08:05;;;;;;;1.48;0.52;;;;;;;13.14;100.00;100207.72;5016514;28;20558;-74
2021/08/17 03:11:08;;;;;;;1.02;0.30;;;;;;;13.16;100.00;100199.59;5013744;28;20056;-74
2021/08/17 03:14:11;;;;;;;1.38;0.43;;;;;;;13.16;100.00;100196.03;5015659;28;20562;-74
2021/08/17 03:17:14;;;;;;;3.83;0.85;;;;;;;13.20;100.00;100180.59;5011323;28;20077;-75
2021/08/17 03:20:19;;;;;;;0.45;0.15;;;;;;;13.22;100.00;100183.69;5010105;28;20084;-75
2021/08/17 03:23:22;;;;;;;1.52;0.30;;;;;;;13.29;100.00;100180.47;5012352;28;20060;-76
2021/08/17 03:26:25;;;;;;;0.50;0.35;;;;;;;13.28;100.00;100180.94;5012871;28;20088;-75
2021/08/17 03:29:28;;;;;;;1.20;0.30;;;;;;;13.27;100.00;100173.81;5013148;28;20147;-76
2021/08/17 03:32:31;;;;;;;1.38;0.57;;;;;;;13.28;100.00;100173.34;5013140;28;20052;-75
2021/08/17 03:35:34;;;;;;;1.13;0.57;;;;;;;13.24;100.00;100172.00;5013356;28;20153;-77
2021/08/17 03:38:37;;;;;;;2.78;0.63;;;;;;;13.21;100.00;100184.91;5012730;28;20531;-77
2021/08/17 03:41:41;;;;;;;1.63;0.57;;;;;;;13.31;100.00;100172.38;5012433;28;20061;-77
2021/08/17 03:44:44;;;;;;;0.25;0.22;;;;;;;13.31;100.00;100166.78;5013382;28;20057;-76
2021/08/17 03:47:48;;;;;;;1.55;0.60;;;;;;;13.36;100.00;100168.13;5013350;28;20064;-75
2021/08/17 03:50:51;;;;;;;0.75;0.30;;;;;;;13.23;100.00;100165.63;5013041;28;20416;-74
2021/08/17 03:53:55;;;;;;;0.60;0.28;;;;;;;13.42;100.00;100155.75;5013296;28;20419;-74
2021/08/17 03:56:57;;;;;;;1.95;0.60;;;;;;;13.47;100.00;100152.25;5012831;28;20412;-74
2021/08/17 04:00:04;;;;;;;1.65;0.63;;;;;;;13.48;100.00;100150.22;5013609;28;20408;-74
2021/08/17 04:03:07;;;;;;;0.38;0.30;;;;;;;13.49;100.00;100149.72;5009289;28;20463;-74
2021/08/17 04:06:10;;;;;;;2.35;0.32;;;;;;;13.56;100.00;100140.13;5013264;28;20065;-75
2021/08/17 04:09:13;;;;;;;0.85;0.20;;;;;;;13.54;100.00;100148.25;5009966;28;20507;-75
2021/08/17 04:12:16;;;;;;;0.57;0.17;;;;;;;13.49;100.00;100138.53;5009189;28;20052;-75
2021/08/17 04:15:19;;;;;;;0.63;0.45;;;;;;;13.55;100.00;100147.78;5009150;28;20116;-75
2021/08/17 04:18:22;;;;;;;1.55;0.17;;;;;;;13.68;100.00;100127.84;5012814;28;20523;-75
2021/08/17 04:21:25;;;;;;;0.32;0.13;;;;;;;13.56;100.00;100126.94;5012443;28;20061;-75
2021/08/17 04:24:29;;;;;;;0.45;0.30;;;;;;;13.56;100.00;100128.94;5013106;28;20611;-75
2021/08/17 04:27:33;;;;;;;0.75;0.20;;;;;;;13.57;100.00;100128.47;5012456;28;20061;-75
2021/08/17 04:30:35;;;;;;;0.35;0.15;;;;;;;13.49;100.00;100121.75;4998636;28;20065;-75
2021/08/17 04:33:38;;;;;;;0.60;0.25;;;;;;;13.56;100.00;100135.31;4992916;28;20069;-75
2021/08/17 04:36:42;;;;;;;0.20;0.20;;;;;;;13.54;100.00;100129.44;4992382;28;20502;-75
2021/08/17 04:39:45;;;;;;;1.25;0.63;;;;;;;13.53;100.00;100129.94;4984713;28;20097;-76
2021/08/17 04:42:48;;;;;;;0.40;0.20;;;;;;;13.46;100.00;100133.94;4992412;28;20060;-76
2021/08/17 04:45:52;;;;;;;0.47;0.20;;;;;;;13.43;100.00;100134.13;4992726;28;21279;-76
2021/08/17 04:48:55;;;;;;;0.20;0.10;;;;;;;13.58;100.00;100127.19;4992539;28;20065;-76
2021/08/17 04:51:58;;;;;;;0.30;0.30;;;;;;;13.43;100.00;100129.28;4992305;28;20097;-74
2021/08/17 04:55:01;;;;;;;1.48;0.25;;;;;;;13.49;100.00;100132.19;4992814;28;20417;-74
2021/08/17 04:58:05;;;;;;;0.63;0.47;;;;;;;13.60;100.00;100137.91;4992908;28;20440;-75
2021/08/17 05:01:08;;;;;;;0.90;0.25;;;;;;;13.45;100.00;100132.38;4992015;28;20527;-77
2021/08/17 05:04:11;;;;;;;0.40;0.20;;;;;;;13.46;100.00;100138.75;4992622;28;20100;-76
2021/08/17 05:07:14;;;;;;;0.32;0.20;;;;;;;13.42;100.00;100141.75;4991862;28;20065;-76
2021/08/17 05:10:21;;;;;;;1.65;0.20;;;;;;;13.43;100.00;100145.31;4992320;28;20077;-76
2021/08/17 05:13:24;;;;;;;0.10;0.10;;;;;;;13.41;100.00;100137.41;4991281;28;20081;-77
2021/08/17 05:16:27;;;;;;;0.30;0.20;;;;;;;13.38;100.00;100143.97;4991833;28;20628;-77
2021/08/17 05:19:30;;;;;;;0.10;0.10;;;;;;;13.40;100.00;100141.47;4992266;28;20197;-75
2021/08/17 05:22:33;;;;;;;1.38;0.63;;;;;;;13.37;100.00;100152.84;4991352;28;20066;-74
2021/08/17 05:25:36;;;;;;;0.95;0.40;;;;;;;13.45;100.00;100142.78;4991811;28;20112;-74
2021/08/17 05:28:39;;;;;;;0.57;0.30;;;;;;;13.43;100.00;100140.50;4992780;28;20092;-74
2021/08/17 05:31:42;;;;;;;2.10;0.15;;;;;;;13.39;100.00;100142.72;4992812;28;20121;-74
2021/08/17 05:34:46;;;;;;;1.45;0.32;;;;;;;13.38;100.00;100143.97;4992007;28;20065;-75
2021/08/17 05:37:49;;;;;;;0.63;0.15;;;;;;;13.41;100.00;100148.59;4991376;28;20062;-76
2021/08/17 05:40:52;;;;;;;1.00;0.43;;;;;;;13.45;100.00;100140.75;4991125;28;20065;-75
2021/08/17 05:43:55;;;;;;;1.13;0.50;;;;;;;13.47;100.00;100143.84;4990830;28;20201;-74
2021/08/17 05:46:58;;;;;;;0.90;0.40;;;;;;;13.42;100.00;100133.38;4991152;28;20527;-74
2021/08/17 05:50:01;;;;;;;1.10;0.30;;;;;;;13.43;100.00;100134.88;4991289;28;20061;-74
2021/08/17 05:53:04;;;;;;;0.13;0.05;;;;;;;13.47;100.00;100134.72;4991401;28;20061;-74
2021/08/17 05:56:08;;;;;;;0.10;0.10;;;;;;;13.49;100.00;100132.19;4986189;28;20524;-75
2021/08/17 05:59:11;;;;;;;3.72;0.30;;;;;;;13.50;100.00;100130.91;4991721;28;20098;-74
2021/08/17 06:02:13;;;;;;;1.48;0.30;;;;;;;13.52;100.00;100140.38;4991490;28;20572;-74
2021/08/17 06:05:17;;;;;;;0.30;0.17;;;;;;;13.56;100.00;100132.53;4991744;28;20053;-75
2021/08/17 06:08:20;;;;;;;0.60;0.10;;;;;;;13.55;100.00;100133.78;4990473;28;20174;-75
2021/08/17 06:11:23;;;;;;;0.63;0.20;;;;;;;13.60;100.00;100135.09;4991546;28;20120;-74
2021/08/17 06:14:26;;;;;;;0.15;0.15;;;;;;;13.64;100.00;100133.63;4991267;28;20069;-74
2021/08/17 06:17:29;;;;;;;0.20;0.20;;;;;;;13.79;100.00;100132.81;4991415;28;20411;-74
2021/08/17 06:20:33;;;;;;;0.10;0.00;;;;;;;13.88;100.00;100129.88;4991354;28;20101;-74
2021/08/17 06:23:36;;;;;;;0.10;0.00;;;;;;;13.85;100.00;100126.00;4993768;28;20053;-75
2021/08/17 06:26:39;;;;;;;0.20;0.10;;;;;;;13.74;100.00;100141.91;5011202;28;20084;-74
2021/08/17 06:29:43;;;;;;;0.10;0.10;;;;;;;13.89;100.00;100131.38;5010934;28;20432;-75
2021/08/17 06:32:46;;;;;;;0.10;0.10;;;;;;;13.96;100.00;100130.97;5004035;28;20107;-76
2021/08/17 06:35:49;;;;;;;0.28;0.28;;;;;;;13.96;100.00;100125.38;5011300;28;20065;-75
2021/08/17 06:38:52;;;;;;;0.20;0.20;;;;;;;13.93;100.00;100120.75;5004007;28;20057;-76
2021/08/17 06:41:55;;;;;;;0.10;0.10;;;;;;;13.87;100.00;100131.88;5010659;28;20092;-75
2021/08/17 06:44:58;;;;;;;0.43;0.20;;;;;;;13.81;100.00;100135.88;5004834;28;20052;-75
2021/08/17 06:48:02;;;;;;;1.27;0.35;;;;;;;13.79;100.00;100127.97;5011397;28;20065;-75
2021/08/17 06:51:07;;;;;;;0.20;0.20;;;;;;;13.80;100.00;100142.72;5011117;28;20120;-74
2021/08/17 06:54:10;;;;;;;0.10;0.10;;;;;;;13.81;100.00;100144.28;5010320;28;20610;-74
2021/08/17 06:57:13;;;;;;;0.17;0.10;;;;;;;13.76;100.00;100139.38;5009103;28;20069;-74
2021/08/17 07:00:16;;;;;;;0.40;0.00;;;;;;;13.74;100.00;100136.28;5015248;28;20056;-74
2021/08/17 07:03:19;;;;;;;3.55;0.30;;;;;;;13.74;100.00;100136.28;4974599;28;20065;-75
2021/08/17 07:06:22;;;;;;;0.10;0.00;;;;;;;13.67;100.00;100143.09;4975374;28;20085;-74
2021/08/17 07:09:25;;;;;;;1.10;0.20;;;;;;;13.66;100.00;100141.56;4973806;28;20121;-75
2021/08/17 07:12:28;;;;;;;0.10;0.10;;;;;;;13.58;100.00;100140.41;4974809;28;20066;-74
2021/08/17 07:15:32;;;;;;;0.20;0.10;;;;;;;13.55;100.00;100142.19;4974407;28;20058;-74
2021/08/17 07:18:36;;;;;;;0.10;0.10;;;;;;;13.51;100.00;100141.59;4974796;28;20105;-73
2021/08/17 07:21:39;;;;;;;0.10;0.10;;;;;;;13.45;100.00;100143.56;4974878;28;20070;-74
2021/08/17 07:24:42;;;;;;;0.20;0.10;;;;;;;13.48;100.00;100159.38;4985444;28;20061;-75
2021/08/17 07:27:45;;;;;;;0.20;0.15;;;;;;;13.41;100.00;100157.00;5005327;28;20060;-74
2021/08/17 07:30:48;;;;;;;0.50;0.20;;;;;;;13.31;100.00;100152.00;5013175;28;20057;-74
2021/08/17 07:33:51;;;;;;;0.10;0.00;;;;;;;13.24;100.00;100161.59;5006689;28;20115;-74
2021/08/17 07:36:54;;;;;;;0.10;0.10;;;;;;;13.20;100.00;100165.84;5014077;28;20064;-74
2021/08/17 07:39:57;;;;;;;0.10;0.10;;;;;;;13.18;100.00;100169.13;5009019;28;20061;-75
2021/08/17 07:43:00;;;;;;;0.10;0.10;;;;;;;13.13;100.00;100169.81;5016242;28;20112;-75
2021/08/17 07:46:03;;;;;;;0.85;0.22;;;;;;;13.17;100.00;100170.38;5007530;28;20112;-76
2021/08/17 07:49:06;;;;;;;5.88;0.47;;;;;;;13.23;100.00;100165.63;5013881;28;20065;-75
2021/08/17 07:52:09;;;;;;;4.90;0.17;;;;;;;13.28;100.00;100167.75;5013228;28;20056;-76
2021/08/17 07:55:13;;;;;;;0.10;0.05;;;;;;;13.41;100.00;100157.00;5012037;28;20077;-76
2021/08/17 07:58:16;;;;;;;0.10;0.10;;;;;;;13.46;100.00;100164.69;5013018;28;20064;-77
2021/08/17 08:01:19;;;;;;;0.32;0.05;;;;;;;13.58;100.00;100158.00;5011934;28;20061;-76
2021/08/17 08:04:22;;;;;;;1.15;0.55;;;;;;;13.55;100.00;100158.97;5012857;28;20555;-77
2021/08/17 08:07:25;;;;;;;0.13;0.13;;;;;;;13.61;100.00;100151.44;5011403;28;20123;-76
2021/08/17 08:10:28;;;;;;;0.10;0.03;;;;;;;13.65;100.00;100154.00;5011820;28;20064;-77
2021/08/17 08:13:31;;;;;;;0.10;0.10;;;;;;;13.61;100.00;100157.03;5012179;28;20057;-77
2021/08/17 08:16:34;;;;;;;0.50;0.28;;;;;;;13.65;100.00;100149.19;5012334;28;20065;-76
2021/08/17 08:19:38;;;;;;;1.30;0.20;;;;;;;13.69;100.00;100158.13;5012287;28;20481;-75
2021/08/17 08:22:42;;;;;;;0.10;0.00;;;;;;;13.76;100.00;100151.34;5012500;28;20185;-76
2021/08/17 08:25:45;;;;;;;0.20;0.10;;;;;;;13.76;100.00;100150.56;5004577;28;20112;-75
2021/08/17 08:28:48;;;;;;;0.43;0.10;;;;;;;13.77;100.00;100144.50;5007365;28;20065;-76
2021/08/17 08:31:52;;;;;;;0.40;0.20;;;;;;;13.69;100.00;100158.13;5013104;28;20057;-76
2021/08/17 08:34:56;;;;;;;0.15;0.10;;;;;;;13.77;100.00;100161.28;5004285;28;20065;-76
2021/08/17 08:37:59;;;;;;;1.05;0.20;;;;;;;13.78;100.00;100159.25;5012188;28;20080;-76
2021/08/17 08:41:03;;;;;;;4.40;0.20;;;;;;;13.66;100.00;100147.91;5006190;28;20064;-76
2021/08/17 08:44:06;;;;;;;0.40;0.30;;;;;;;13.68;100.00;100156.59;5004782;28;20065;-76
2021/08/17 08:47:13;;;;;;;2.03;0.63;;;;;;;13.72;100.00;100155.63;5007311;28;20089;-76
2021/08/17 08:50:17;;;;;;;0.57;0.38;;;;;;;13.82;100.00;100145.84;5008100;28;20116;-77
2021/08/17 08:53:20;;;;;;;0.95;0.10;;;;;;;13.83;100.00;100162.13;5018781;28;20099;-76
2021/08/17 08:56:29;;;;;;;0.55;0.20;;;;;;;13.99;100.00;100155.19;5002727;28;20104;-78
2021/08/17 08:59:33;;;;;;;1.23;0.38;;;;;;;14.17;100.00;100141.66;5012289;28;20065;-77
2021/08/17 09:02:36;;;;;;;5.55;0.80;;;;;;;14.21;100.00;100141.41;5011467;28;20069;-77
2021/08/17 09:05:53;;;;;;;0.38;0.20;;;;;;;14.34;100.00;100133.44;5011590;28;20558;-77
2021/08/17 09:09:16;;;;;;;0.45;0.32;;;;;;;14.37;100.00;100136.03;5011445;28;20127;-76
2021/08/17 09:12:32;;;;;;;4.75;0.52;;;;;;;14.40;100.00;100126.63;5007239;28;20550;-76
2021/08/17 09:15:36;;;;;;;0.85;0.35;;;;;;;14.46;100.00;100135.09;5011014;28;20578;-76
2021/08/17 09:18:39;;;;;;;4.55;1.40;;;;;;;14.64;100.00;100140.34;5011269;28;20188;-76
2021/08/17 09:21:42;;;;;;;12.18;2.00;;;;;;;14.66;100.00;100137.78;5011707;28;20412;-76
2021/08/17 09:24:56;;;;;;;6.78;0.77;;;;;;;14.56;100.00;100138.47;5010836;28;20060;-76
2021/08/17 09:28:36;;;;;;;3.65;1.50;;;;;;;14.66;100.00;100132.19;5005541;28;20127;-76
2021/08/17 09:31:40;;;;;;;2.25;1.05;;;;;;;14.70;100.00;100138.38;5010584;28;20069;-76
2021/08/17 09:34:45;;;;;;;2.55;0.30;;;;;;;14.69;100.00;100142.41;4992108;28;20144;-76
2021/08/17 09:38:29;;;;;;;4.22;0.63;;;;;;;14.73;100.00;100126.16;4991958;28;20112;-76
2021/08/17 09:41:32;;;;;;;4.43;0.57;;;;;;;14.81;100.00;100126.47;4972582;28;20090;-76
2021/08/17 09:44:36;;;;;;;2.20;0.55;;;;;;;14.85;100.00;100127.78;4992761;28;20081;-76
2021/08/17 09:47:42;;;;;;;5.18;0.40;;;;;;;14.89;100.00;100128.31;4991867;28;20136;-76
2021/08/17 09:50:45;;;;;;;0.10;0.10;;;;;;;14.99;100.00;100121.25;5006622;28;20575;-77
2021/08/17 09:54:12;;;;;;;2.95;0.55;;;;;;;15.08;100.00;100123.09;4991575;28;20060;-76
2021/08/17 09:57:16;;;;;;;1.98;0.50;;;;;;;15.17;100.00;100132.09;4995195;28;20089;-76
2021/08/17 10:00:18;;;;;;;0.50;0.20;;;;;;;15.22;100.00;100127.00;4991044;28;20053;-78
2021/08/17 10:03:23;;;;;;;0.70;0.30;;;;;;;15.37;100.00;100117.16;4991895;28;20468;-76
2021/08/17 10:06:26;;;;;;;1.90;0.32;;;;;;;15.42;100.00;100110.03;4991629;28;20136;-76
2021/08/17 10:09:32;;;;;;;0.10;0.10;;;;;;;15.54;100.00;100106.81;4991403;28;20112;-77
2021/08/17 10:12:36;;;;;;;2.47;0.45;;;;;;;15.58;100.00;100112.16;4991546;28;20070;-76
2021/08/17 10:15:42;;;;;;;1.48;0.35;;;;;;;15.62;100.00;100102.25;4991366;28;20069;-76
2021/08/17 10:18:45;;;;;;;0.20;0.05;;;;;;;15.60;100.00;100127.25;4991721;28;20116;-77
2021/08/17 10:21:51;;;;;;;9.15;0.45;;;;;;;15.66;100.00;100116.03;4998771;28;20432;-77
2021/08/17 10:25:06;;;;;;;0.10;0.00;;;;;;;15.54;100.00;100125.69;5004344;28;20471;-77
2021/08/17 10:28:28;;;;;;;0.52;0.22;;;;;;;15.30;100.00;100128.06;5006313;28;20104;-77
2021/08/17 10:31:32;;;;;;;4.80;0.77;;;;;;;15.17;100.00;100129.28;5012479;28;20458;-77
2021/08/17 10:34:38;;;;;;;3.05;0.70;;;;;;;15.10;100.00;100124.13;5014827;28;20741;-77
2021/08/17 10:37:40;;;;;;;1.92;0.57;;;;;;;15.07;100.00;100121.56;5013688;28;20108;-77
2021/08/17 10:40:52;;;;;;;1.58;0.38;;;;;;;15.14;100.00;100133.06;5006226;28;20133;-78
2021/08/17 10:43:55;;;;;;;3.30;0.57;;;;;;;15.20;100.00;100131.06;5014376;28;20104;-77
2021/08/17 10:47:06;;;;;;;1.10;0.40;;;;;;;15.22;100.00;100141.81;4988648;28;20104;-77
2021/08/17 10:50:30;;;;;;;0.20;0.20;;;;;;;15.25;100.00;100140.00;4990048;28;20081;-78
2021/08/17 10:53:38;;;;;;;1.20;0.10;;;;;;;15.33;100.00;100132.69;4994589;28;20181;-78
2021/08/17 10:56:42;;;;;;;0.20;0.17;;;;;;;15.36;100.00;100131.66;5005144;28;20425;-79
2021/08/17 10:59:47;;;;;;;0.20;0.20;;;;;;;15.37;100.00;100141.63;5005254;28;20062;-77
2021/08/17 11:02:55;;;;;;;0.77;0.20;;;;;;;15.44;100.00;100132.78;4993516;28;20069;-77
2021/08/17 11:05:58;;;;;;;2.35;0.35;;;;;;;15.54;100.00;100148.13;4994461;28;20065;-76
2021/08/17 11:09:04;;;;;;;0.65;0.20;;;;;;;15.51;100.00;100132.28;4994689;28;20519;-77
2021/08/17 11:12:08;;;;;;;0.10;0.10;;;;;;;15.50;100.00;100139.19;4990323;28;20104;-78
2021/08/17 11:15:14;;;;;;;0.35;0.22;;;;;;;15.59;100.00;100133.38;4990567;28;20109;-76
2021/08/17 11:18:19;;;;;;;0.10;0.05;;;;;;;15.50;100.00;100133.56;4995776;28;20125;-77
2021/08/17 11:21:29;;;;;;;0.22;0.22;;;;;;;15.41;100.00;100139.34;4994127;28;20056;-78
2021/08/17 11:24:43;;;;;;;0.30;0.20;;;;;;;15.56;100.00;100140.75;5005106;28;20061;-76
2021/08/17 11:27:48;;;;;;;1.48;0.22;;;;;;;15.53;100.00;100127.72;5018520;28;20088;-76
2021/08/17 11:30:53;;;;;;;2.10;0.30;;;;;;;15.51;100.00;100127.44;5012134;28;20108;-76
2021/08/17 11:34:20;;;;;;;6.22;0.30;;;;;;;15.34;100.00;100125.78;5017749;28;20428;-76
2021/08/17 11:37:23;;;;;;;1.60;0.15;;;;;;;15.40;100.00;100127.34;5013561;28;20057;-76
2021/08/17 11:40:26;;;;;;;1.20;0.35;;;;;;;15.41;100.00;100125.31;5015277;28;20108;-76
2021/08/17 11:43:30;;;;;;;1.48;0.57;;;;;;;15.41;100.00;100128.13;5013609;28;20064;-76
2021/08/17 11:46:33;;;;;;;1.33;0.47;;;;;;;15.46;100.00;100116.97;5013710;28;20145;-76
2021/08/17 11:49:37;;;;;;;2.78;0.73;;;;;;;15.43;100.00;100120.78;5014762;28;20057;-76
2021/08/17 11:52:43;;;;;;;0.40;0.10;;;;;;;15.54;100.00;100117.25;5014487;28;20092;-76
2021/08/17 11:55:46;;;;;;;2.60;0.30;;;;;;;15.60;100.00;100116.00;5007326;28;20108;-76
2021/08/17 11:58:53;;;;;;;1.55;0.40;;;;;;;15.64;100.00;100119.34;5014764;28;20064;-76
2021/08/17 12:02:00;;;;;;;1.10;0.85;;;;;;;15.64;100.00;100112.97;5008061;28;20076;-76
2021/08/17 12:05:06;;;;;;;4.60;0.32;;;;;;;15.75;100.00;100113.78;5014320;28;20104;-76
2021/08/17 12:08:14;;;;;;;2.08;0.52;;;;;;;15.74;100.00;100111.47;5010292;28;20100;-76
2021/08/17 12:11:21;;;;;;;2.13;0.50;;;;;;;15.84;100.00;100104.34;5014701;28;20053;-76
2021/08/17 12:14:24;;;;;;;2.75;0.47;;;;;;;15.98;100.00;100102.63;5014573;28;20112;-76
2021/08/17 12:17:27;;;;;;;3.13;0.57;;;;;;;16.03;100.00;100104.66;5014146;28;20440;-76
2021/08/17 12:20:31;;;;;;;2.25;0.40;;;;;;;15.99;100.00;100121.78;5013459;28;20057;-76
2021/08/17 12:23:35;;;;;;;0.93;0.17;;;;;;;16.04;100.00;100123.06;5012771;28;20592;-76
2021/08/17 12:26:38;;;;;;;2.03;0.70;;;;;;;16.08;100.00;100118.75;5012746;28;20515;-76
2021/08/17 12:29:43;;;;;;;2.83;0.52;;;;;;;16.12;100.00;100124.09;5012434;28;20068;-76
2021/08/17 12:32:52;;;;;;;7.65;0.22;;;;;;;16.02;100.00;100126.38;5012252;28;20065;-76
2021/08/17 12:35:55;;;;;;;1.75;0.73;;;;;;;16.12;100.00;100126.91;5012290;28;20064;-76
2021/08/17 12:39:25;;;;;;;1.13;0.30;;;;;;;16.10;100.00;100130.22;5012796;28;20057;-76
2021/08/17 12:42:28;;;;;;;2.85;0.85;;;;;;;16.25;100.00;100124.38;5011743;28;20088;-76
2021/08/17 12:45:32;;;;;;;6.00;0.73;;;;;;;15.88;100.00;100121.72;5012262;28;20151;-76
2021/08/17 12:48:45;;;;;;;2.63;1.48;;;;;;;16.05;100.00;100114.13;5012624;28;20056;-76
2021/08/17 12:51:48;;;;;;;3.63;0.77;;;;;;;16.34;100.00;100119.31;5023324;28;20519;-76
2021/08/17 12:54:54;;;;;;;1.10;0.55;;;;;;;16.25;100.00;100122.34;5011807;28;20092;-76
2021/08/17 12:57:57;;;;;;;2.33;0.57;;;;;;;16.11;100.00;100112.13;5012247;28;20061;-76
2021/08/17 13:01:00;;;;;;;3.70;0.95;;;;;;;16.16;100.00;100107.75;5014054;28;20057;-77
2021/08/17 13:04:03;;;;;;;1.20;0.50;;;;;;;16.26;100.00;100114.69;5007543;28;20056;-76
2021/08/17 13:07:06;;;;;;;6.65;2.05;;;;;;;16.20;100.00;100108.31;5006614;28;20514;-76
2021/08/17 13:10:12;;;;;;;7.13;1.77;;;;;;;16.18;100.00;100110.81;5007291;28;20184;-76
2021/08/17 13:13:14;;;;;;;1.48;0.77;;;;;;;16.23;100.00;100107.25;5012016;28;20116;-76
2021/08/17 13:16:18;;;;;;;4.50;1.25;;;;;;;16.26;100.00;100106.25;5007989;28;20061;-76
2021/08/17 13:19:21;;;;;;;3.42;1.45;;;;;;;16.12;100.00;100093.97;5008303;28;20187;-76
2021/08/17 13:22:24;;;;;;;3.13;1.48;;;;;;;16.36;100.00;100097.06;5012344;28;20108;-75
2021/08/17 13:25:27;;;;;;;1.75;0.60;;;;;;;16.58;100.00;100085.88;5011698;28;20081;-75
2021/08/17 13:28:30;;;;;;;5.70;1.65;;;;;;;16.44;100.00;100092.47;5011394;28;20115;-75
2021/08/17 13:31:33;;;;;;;3.17;1.95;;;;;;;16.41;100.00;100096.31;5011016;28;20154;-75
2021/08/17 13:34:37;;;;;;;5.10;2.10;;;;;;;16.48;100.00;100092.22;5011828;28;20708;-74
2021/08/17 13:37:40;;;;;;;2.58;1.05;;;;;;;16.35;100.00;100097.59;5011519;28;20065;-75
2021/08/17 13:40:44;;;;;;;2.50;0.98;;;;;;;16.58;100.00;100104.78;5011562;28;20116;-76
2021/08/17 13:43:47;;;;;;;1.65;1.10;;;;;;;16.59;100.00;100115.50;5004597;28;20103;-75
2021/08/17 13:46:51;;;;;;;2.22;1.13;;;;;;;16.62;100.00;100111.69;5011798;28;20088;-75
2021/08/17 13:49:54;;;;;;;6.03;0.68;;;;;;;16.70;100.00;100109.13;5004577;28;20065;-74
2021/08/17 13:52:57;;;;;;;3.85;1.00;;;;;;;17.00;100.00;100109.38;5011666;28;20077;-74
2021/08/17 13:56:01;;;;;;;1.73;0.90;;;;;;;17.28;100.00;100110.81;5005762;28;20817;-75
2021/08/17 13:59:05;;;;;;;2.60;1.00;;;;;;;17.22;100.00;100112.91;5011325;28;20511;-75
2021/08/17 14:02:08;;;;;;;0.98;0.60;;;;;;;17.00;100.00;100112.19;5005959;28;20064;-75
2021/08/17 14:05:11;;;;;;;1.67;0.40;;;;;;;17.08;100.00;100107.56;5011288;28;20056;-76
2021/08/17 14:08:16;;;;;;;4.40;1.20;;;;;;;17.36;100.00;100113.91;5015522;28;20061;-75